Time;durP1;ratioP1;P1;durP2;ratioP2;P2;SDS_P1;SDS_P2;PMS_P1;PMS_P2;Temp;Humidity;BMP_temperature;BMP_pressure;BME280_temperature;BME280_humidity;BME280_pressure;Samples;Min_cycle;Max_cycle;Signal;HPM_P1;HPM_P2
2022/10/17 00:01:22;;;;;;;8.10;4.30;;;;;;;14.51;nan;99937.06;4937699;28;20284;-79
2022/10/17 00:03:47;;;;;;;6.40;3.10;;;;;;;14.52;nan;99933.44;4938718;28;20204;-78
2022/10/17 00:06:14;;;;;;;4.83;3.43;;;;;;;14.54;nan;99928.94;4936433;28;20237;-79
2022/10/17 00:08:41;;;;;;;5.93;4.57;;;;;;;14.53;nan;99946.59;4935881;28;20205;-79
2022/10/17 00:11:14;;;;;;;5.00;2.78;;;;;;;14.51;nan;99939.69;4938254;28;20481;-81
2022/10/17 00:13:39;;;;;;;7.35;3.35;;;;;;;14.44;nan;99938.47;4940594;28;20334;-80
2022/10/17 00:16:05;;;;;;;6.57;3.57;;;;;;;14.38;nan;99942.41;4918106;28;20260;-79
2022/10/17 00:18:31;;;;;;;4.10;3.10;;;;;;;14.35;nan;99938.19;4930914;28;20252;-81
2022/10/17 00:20:56;;;;;;;4.70;3.60;;;;;;;14.35;nan;99932.91;4943040;28;20995;-81
2022/10/17 00:23:22;;;;;;;4.73;3.97;;;;;;;14.35;nan;99942.63;4939654;28;20619;-79
2022/10/17 00:25:56;;;;;;;4.07;3.33;;;;;;;14.33;nan;99941.91;4941096;28;20622;-78
2022/10/17 00:28:22;;;;;;;5.47;3.20;;;;;;;14.34;nan;99940.97;4938731;28;20222;-79
2022/10/17 00:30:55;;;;;;;4.75;4.25;;;;;;;14.34;nan;99947.09;4941261;28;20219;-81
2022/10/17 00:33:21;;;;;;;5.40;3.63;;;;;;;14.34;nan;99947.09;4937185;28;20621;-81
2022/10/17 00:35:46;;;;;;;7.00;3.63;;;;;;;14.33;nan;99940.09;4935781;28;20307;-81
2022/10/17 00:38:11;;;;;;;8.13;3.47;;;;;;;14.32;nan;99949.00;4940440;28;20209;-79
2022/10/17 00:40:37;;;;;;;3.20;2.90;;;;;;;14.32;nan;99940.22;4958419;28;21045;-78
2022/10/17 00:43:02;;;;;;;5.07;3.97;;;;;;;14.31;nan;99954.38;4943109;28;20220;-81
2022/10/17 00:45:30;;;;;;;5.37;3.10;;;;;;;14.28;nan;99951.97;4939577;28;20200;-79
2022/10/17 00:48:08;;;;;;;4.50;3.20;;;;;;;14.25;nan;99955.66;4934010;28;20218;-78
2022/10/17 00:50:35;;;;;;;7.68;4.25;;;;;;;14.22;nan;99958.53;4940077;28;20738;-79
2022/10/17 00:53:04;;;;;;;5.32;3.55;;;;;;;14.20;nan;99957.81;4935822;28;20243;-79
2022/10/17 00:55:34;;;;;;;5.38;3.70;;;;;;;14.17;nan;99958.03;4949085;28;20236;-79
2022/10/17 00:58:02;;;;;;;5.20;3.63;;;;;;;14.12;nan;99954.88;4936814;28;20201;-80
2022/10/17 01:00:27;;;;;;;6.20;3.50;;;;;;;14.10;nan;99962.94;4937609;28;20271;-79
2022/10/17 01:02:53;;;;;;;5.87;4.33;;;;;;;14.14;nan;99966.19;4947876;28;20492;-79
2022/10/17 01:05:19;;;;;;;13.17;4.67;;;;;;;14.12;nan;99962.81;4926401;28;20461;-79
2022/10/17 01:07:47;;;;;;;8.30;3.50;;;;;;;14.06;nan;99969.38;4927591;28;20328;-79
2022/10/17 01:10:13;;;;;;;5.25;3.63;;;;;;;14.04;nan;99970.44;4926785;28;20213;-80
2022/10/17 01:12:39;;;;;;;5.60;3.35;;;;;;;14.01;nan;99975.94;4926431;28;20312;-82
2022/10/17 01:15:28;;;;;;;2.70;2.50;;;;;;;13.95;nan;99978.06;4924847;28;20369;-81
2022/10/17 01:18:09;;;;;;;6.15;3.72;;;;;;;13.93;nan;99971.22;4924942;28;20727;-79
2022/10/17 01:20:56;;;;;;;5.82;3.70;;;;;;;13.88;nan;99962.78;4925946;28;20223;-79
2022/10/17 01:23:39;;;;;;;8.25;3.65;;;;;;;13.86;nan;99970.81;4950418;28;20702;-79
2022/10/17 01:26:24;;;;;;;5.22;3.75;;;;;;;13.83;nan;99978.97;4941596;28;20201;-78
2022/10/17 01:29:11;;;;;;;14.23;4.40;;;;;;;13.81;nan;99974.75;4926429;28;20193;-79
2022/10/17 01:31:48;;;;;;;6.53;3.40;;;;;;;13.78;nan;99973.16;4936501;28;20316;-79
2022/10/17 01:34:16;;;;;;;8.70;3.97;;;;;;;13.76;nan;99971.59;4923831;28;20217;-80
2022/10/17 01:36:53;;;;;;;3.20;2.90;;;;;;;13.73;nan;99972.66;4925775;28;20474;-79
2022/10/17 01:39:25;;;;;;;7.25;3.85;;;;;;;13.72;nan;99976.25;4926569;28;20647;-79
2022/10/17 01:42:10;;;;;;;6.50;3.65;;;;;;;13.72;nan;99970.97;4938019;28;20230;-79
2022/10/17 01:44:41;;;;;;;6.32;4.10;;;;;;;13.68;nan;99962.41;4936472;28;20209;-79
2022/10/17 01:47:12;;;;;;;5.47;4.30;;;;;;;13.69;nan;99965.88;4926257;28;20251;-82
2022/10/17 01:49:42;;;;;;;6.03;3.50;;;;;;;13.68;nan;99958.94;4944592;28;20235;-81
2022/10/17 01:52:15;;;;;;;5.43;3.90;;;;;;;13.66;nan;99966.09;4923661;28;20545;-82
2022/10/17 01:54:55;;;;;;;10.75;5.45;;;;;;;13.65;nan;99961.78;4935014;28;20316;-81
2022/10/17 01:57:24;;;;;;;7.78;4.47;;;;;;;13.61;nan;99957.66;4935450;28;20620;-80
2022/10/17 01:59:51;;;;;;;8.30;3.30;;;;;;;13.60;nan;99948.06;4926723;28;20204;-78
2022/10/17 02:02:21;;;;;;;5.13;3.80;;;;;;;13.58;nan;99960.53;4926556;28;20320;-81
2022/10/17 02:04:50;;;;;;;9.45;4.80;;;;;;;13.61;nan;99957.66;4925869;28;20479;-79
2022/10/17 02:07:16;;;;;;;5.35;3.42;;;;;;;13.57;nan;99956.22;4935380;28;20276;-79
2022/10/17 02:09:41;;;;;;;5.10;4.70;;;;;;;13.54;nan;99954.63;4932548;28;20607;-79
2022/10/17 02:12:22;;;;;;;3.30;2.70;;;;;;;13.52;nan;99959.16;4936382;28;20328;-81
2022/10/17 02:15:05;;;;;;;4.32;3.17;;;;;;;13.54;nan;99957.28;4935316;28;20209;-78
2022/10/17 02:17:47;;;;;;;7.05;3.50;;;;;;;13.58;nan;99952.59;4934782;28;20213;-81
2022/10/17 02:20:22;;;;;;;5.57;3.33;;;;;;;13.58;nan;99952.59;4951836;28;20670;-79
2022/10/17 02:22:54;;;;;;;4.90;4.15;;;;;;;13.58;nan;99956.09;4937208;28;20228;-80
2022/10/17 02:25:44;;;;;;;4.93;3.85;;;;;;;13.58;nan;99945.53;4930158;28;20211;-82
2022/10/17 02:28:36;;;;;;;5.75;4.05;;;;;;;13.54;nan;99951.16;4930346;28;20216;-80
2022/10/17 02:31:09;;;;;;;8.48;4.55;;;;;;;13.52;nan;99940.69;4936721;28;20567;-80
2022/10/17 02:33:43;;;;;;;5.70;4.10;;;;;;;13.46;nan;99944.59;4930390;28;20634;-78
2022/10/17 02:36:16;;;;;;;5.35;3.65;;;;;;;13.45;nan;99947.38;4932640;28;20239;-81
2022/10/17 02:38:44;;;;;;;5.45;3.90;;;;;;;13.41;nan;99941.44;4932875;28;20203;-80
2022/10/17 02:41:15;;;;;;;5.20;3.72;;;;;;;13.37;nan;99944.44;4938260;28;20221;-80
2022/10/17 02:43:44;;;;;;;5.95;3.90;;;;;;;13.36;nan;99948.00;4933895;28;20284;-79
2022/10/17 02:46:19;;;;;;;5.53;3.85;;;;;;;13.32;nan;99952.66;4937029;28;20232;-80
2022/10/17 02:48:56;;;;;;;4.53;3.40;;;;;;;13.29;nan;99950.22;4936068;28;20199;-78
2022/10/17 02:51:46;;;;;;;5.45;3.85;;;;;;;13.25;nan;99951.34;4934553;28;20283;-80
2022/10/17 02:54:26;;;;;;;5.93;4.10;;;;;;;13.19;nan;99952.63;4933746;28;20978;-80
2022/10/17 02:56:57;;;;;;;6.25;4.32;;;;;;;13.19;nan;99951.78;4947109;28;20222;-78
2022/10/17 02:59:25;;;;;;;6.22;3.70;;;;;;;13.16;nan;99952.84;4952126;28;20241;-80
2022/10/17 03:01:51;;;;;;;7.97;3.60;;;;;;;13.16;nan;99959.91;4932371;28;20304;-79
2022/10/17 03:04:17;;;;;;;10.67;3.63;;;;;;;13.17;nan;99954.50;4931938;28;20212;-78
2022/10/17 03:06:45;;;;;;;4.68;4.15;;;;;;;13.19;nan;99963.16;4934759;28;20536;-80
2022/10/17 03:09:10;;;;;;;6.65;4.85;;;;;;;13.22;nan;99970.03;4948433;28;20207;-78
2022/10/17 03:11:36;;;;;;;5.93;4.17;;;;;;;13.25;nan;99967.19;4940051;28;20225;-82
2022/10/17 03:14:02;;;;;;;10.50;4.60;;;;;;;13.26;nan;99968.91;4930877;28;20451;-79
2022/10/17 03:16:27;;;;;;;6.53;4.20;;;;;;;13.25;nan;99964.53;4935424;28;20602;-79
2022/10/17 03:18:53;;;;;;;10.87;4.33;;;;;;;13.21;nan;99976.25;4937943;28;20359;-82
2022/10/17 03:21:18;;;;;;;8.93;3.93;;;;;;;13.18;nan;99973.84;4932928;28;20255;-79
2022/10/17 03:23:43;;;;;;;4.57;4.00;;;;;;;13.13;nan;99986.50;4934166;28;20632;-79
2022/10/17 03:26:09;;;;;;;5.10;4.00;;;;;;;13.11;nan;99983.09;4935818;28;20750;-80
2022/10/17 03:28:35;;;;;;;6.50;4.47;;;;;;;13.07;nan;99977.22;4930911;28;20239;-79
2022/10/17 03:31:09;;;;;;;7.40;3.50;;;;;;;13.07;nan;99983.31;4931305;28;20712;-78
2022/10/17 03:33:36;;;;;;;7.10;3.95;;;;;;;13.05;nan;99985.22;4938214;28;20644;-78
2022/10/17 03:36:09;;;;;;;5.95;3.40;;;;;;;13.05;nan;99982.56;4941388;28;20240;-82
2022/10/17 03:38:35;;;;;;;4.82;3.25;;;;;;;13.06;nan;99984.25;4949808;28;20206;-81
2022/10/17 03:41:01;;;;;;;9.60;4.20;;;;;;;13.04;nan;99988.81;4939229;28;20781;-79
2022/10/17 03:43:27;;;;;;;6.38;4.28;;;;;;;13.04;nan;99988.81;4952193;28;20461;-78
2022/10/17 03:45:52;;;;;;;4.80;3.43;;;;;;;13.00;nan;99989.94;4934538;28;20217;-79
2022/10/17 03:48:18;;;;;;;5.83;3.37;;;;;;;13.00;nan;99994.38;4931195;28;20296;-81
2022/10/17 03:50:43;;;;;;;8.20;3.90;;;;;;;12.99;nan;99996.19;4932591;28;20596;-79
2022/10/17 03:53:09;;;;;;;5.50;3.90;;;;;;;12.99;nan;100000.63;4938681;28;20212;-81
2022/10/17 03:55:35;;;;;;;3.95;3.35;;;;;;;12.99;nan;99996.19;4947014;28;20681;-79
2022/10/17 03:58:00;;;;;;;5.47;3.57;;;;;;;13.00;nan;100003.13;4940640;28;20215;-78
2022/10/17 04:00:26;;;;;;;6.03;4.73;;;;;;;12.98;nan;99999.75;4930391;28;20261;-81
2022/10/17 04:02:57;;;;;;;5.55;3.88;;;;;;;12.98;nan;99993.63;4934492;28;20596;-81
2022/10/17 04:05:23;;;;;;;8.98;3.88;;;;;;;12.98;nan;99991.84;4936697;28;20253;-78
2022/10/17 04:07:49;;;;;;;4.07;3.67;;;;;;;12.98;nan;99993.63;4932381;28;20589;-81
2022/10/17 04:10:16;;;;;;;5.10;4.03;;;;;;;12.97;nan;100003.34;4938758;28;20615;-82
2022/10/17 04:12:42;;;;;;;4.83;4.43;;;;;;;12.99;nan;100003.25;4935318;28;20243;-82
2022/10/17 04:15:08;;;;;;;4.43;3.93;;;;;;;12.99;nan;100016.44;4932972;28;20199;-78
2022/10/17 04:17:34;;;;;;;4.95;4.10;;;;;;;12.98;nan;100009.47;4935433;28;20213;-79
2022/10/17 04:20:00;;;;;;;6.33;4.60;;;;;;;12.97;nan;100019.16;4935339;28;20670;-83
2022/10/17 04:22:26;;;;;;;4.43;3.77;;;;;;;12.97;nan;100005.97;4950013;28;20849;-79
2022/10/17 04:24:51;;;;;;;6.23;3.97;;;;;;;12.92;nan;100013.34;4939855;28;20205;-79
2022/10/17 04:27:26;;;;;;;6.93;5.25;;;;;;;12.88;nan;100016.28;4937756;28;20673;-78
2022/10/17 04:29:52;;;;;;;5.03;4.00;;;;;;;12.86;nan;100015.56;4944978;28;20216;-78
2022/10/17 04:32:24;;;;;;;11.77;4.80;;;;;;;12.82;nan;100023.66;4937967;28;20229;-82
2022/10/17 04:35:00;;;;;;;6.55;4.95;;;;;;;12.80;nan;100019.47;4932361;28;20749;-79
2022/10/17 04:37:28;;;;;;;9.90;4.57;;;;;;;12.79;nan;100021.22;4932040;28;20546;-81
2022/10/17 04:39:54;;;;;;;6.97;3.95;;;;;;;12.77;nan;100020.50;4932033;28;20205;-78
2022/10/17 04:42:19;;;;;;;7.70;4.00;;;;;;;12.74;nan;100030.38;4929963;28;20633;-79
2022/10/17 04:44:45;;;;;;;6.40;4.23;;;;;;;12.72;nan;100025.22;4946842;28;20720;-80
2022/10/17 04:47:12;;;;;;;7.30;4.70;;;;;;;12.69;nan;100028.06;4939413;28;20304;-78
2022/10/17 04:49:37;;;;;;;7.37;4.80;;;;;;;12.63;nan;100028.44;4944221;28;20284;-79
2022/10/17 04:52:08;;;;;;;6.70;4.15;;;;;;;12.61;nan;100031.22;4956897;23;20244;-76
2022/10/17 04:54:42;;;;;;;8.48;4.30;;;;;;;12.61;nan;100027.72;4946650;28;20291;-76
2022/10/17 04:57:11;;;;;;;10.77;4.45;;;;;;;12.61;nan;100025.94;4956703;28;20226;-76
2022/10/17 04:59:39;;;;;;;8.55;4.82;;;;;;;12.62;nan;100027.63;4963040;28;20202;-76
2022/10/17 05:02:15;;;;;;;8.98;4.60;;;;;;;12.63;nan;100031.09;4962574;28;20238;-76
2022/10/17 05:04:41;;;;;;;4.17;3.60;;;;;;;12.65;nan;100036.28;4959072;28;20741;-76
2022/10/17 05:07:08;;;;;;;5.50;4.90;;;;;;;12.65;nan;100037.13;4972186;28;21526;-76
2022/10/17 05:10:06;;;;;;;7.60;4.25;;;;;;;12.65;nan;100038.91;4967747;28;20229;-76
2022/10/17 05:12:32;;;;;;;6.63;4.25;;;;;;;12.63;nan;100050.38;4961353;28;20219;-76
2022/10/17 05:14:57;;;;;;;6.43;5.30;;;;;;;12.59;nan;100051.53;4963196;28;20590;-76
2022/10/17 05:17:24;;;;;;;13.07;5.30;;;;;;;12.54;nan;100055.41;4959192;28;20217;-77
2022/10/17 05:19:50;;;;;;;9.70;5.97;;;;;;;12.51;nan;100051.19;4959460;28;20378;-76
2022/10/17 05:22:16;;;;;;;9.43;4.60;;;;;;;12.49;nan;100054.88;4962121;28;20226;-76
2022/10/17 05:24:42;;;;;;;7.40;5.68;;;;;;;12.48;nan;100051.41;4962035;28;20458;-76
2022/10/17 05:27:08;;;;;;;9.95;5.20;;;;;;;12.45;nan;100051.59;4954711;28;20460;-77
2022/10/17 05:29:34;;;;;;;15.13;5.50;;;;;;;12.45;nan;100061.25;4959643;28;20564;-76
2022/10/17 05:32:09;;;;;;;11.27;5.07;;;;;;;12.44;nan;100055.16;4958116;28;20243;-76
2022/10/17 05:34:34;;;;;;;10.00;4.93;;;;;;;12.42;nan;100054.41;4959469;28;20207;-76
2022/10/17 05:37:00;;;;;;;14.23;5.27;;;;;;;12.41;nan;100052.72;4959078;28;20220;-77
2022/10/17 05:39:26;;;;;;;7.90;5.23;;;;;;;12.39;nan;100067.78;4972281;28;20472;-76
2022/10/17 05:41:51;;;;;;;4.77;4.30;;;;;;;12.39;nan;100073.03;4959017;28;20235;-76
2022/10/17 05:44:17;;;;;;;10.07;5.97;;;;;;;12.39;nan;100073.91;4956616;28;20240;-76
2022/10/17 05:46:49;;;;;;;8.55;3.92;;;;;;;12.39;nan;100078.31;4956291;28;20250;-77
2022/10/17 05:49:15;;;;;;;5.43;4.20;;;;;;;12.38;nan;100084.53;4956714;28;20213;-76
2022/10/17 05:51:41;;;;;;;5.67;4.93;;;;;;;12.39;nan;100078.31;4959644;28;20241;-77
2022/10/17 05:54:07;;;;;;;5.97;4.57;;;;;;;12.36;nan;100070.59;4960047;28;20361;-76
2022/10/17 05:56:34;;;;;;;9.10;4.50;;;;;;;12.33;nan;100078.72;4955360;28;20245;-77
2022/10/17 05:59:00;;;;;;;6.30;5.30;;;;;;;12.33;nan;100084.81;4975033;28;20195;-76
2022/10/17 06:01:40;;;;;;;9.80;5.85;;;;;;;12.35;nan;100092.63;4959715;28;20216;-77
2022/10/17 06:04:06;;;;;;;6.30;5.50;;;;;;;12.32;nan;100079.66;4954857;28;20217;-76
2022/10/17 06:06:31;;;;;;;12.20;5.43;;;;;;;12.33;nan;100089.25;4954791;28;20209;-77
2022/10/17 06:08:57;;;;;;;8.47;4.53;;;;;;;12.33;nan;100087.44;4955703;28;20206;-77
2022/10/17 06:11:27;;;;;;;6.05;5.13;;;;;;;12.33;nan;100089.25;4958059;28;20222;-77
2022/10/17 06:13:53;;;;;;;8.77;5.90;;;;;;;12.34;nan;100104.09;4953955;28;20552;-76
2022/10/17 06:16:22;;;;;;;6.85;5.35;;;;;;;12.36;nan;100123.28;4958207;28;20228;-76
2022/10/17 06:18:48;;;;;;;8.60;6.23;;;;;;;12.40;nan;100114.28;4956448;28;20511;-76
2022/10/17 06:21:17;;;;;;;6.40;4.70;;;;;;;12.43;nan;100115.88;4958369;28;20687;-76
2022/10/17 06:23:45;;;;;;;6.53;4.53;;;;;;;12.46;nan;100116.50;4956733;28;20281;-76
2022/10/17 06:26:15;;;;;;;5.07;4.60;;;;;;;12.52;nan;100123.19;4958872;28;20193;-76
2022/10/17 06:28:41;;;;;;;5.67;4.93;;;;;;;12.57;nan;100127.22;4958571;28;20186;-76
2022/10/17 06:31:12;;;;;;;6.50;4.70;;;;;;;12.66;nan;100136.31;4953247;28;20563;-77
2022/10/17 06:33:38;;;;;;;6.82;4.63;;;;;;;12.70;nan;100126.44;4964420;28;20553;-77
2022/10/17 06:36:05;;;;;;;13.45;4.97;;;;;;;12.74;nan;100136.66;4960801;28;20277;-76
2022/10/17 06:38:33;;;;;;;7.07;4.75;;;;;;;12.82;nan;100146.72;4960678;28;20551;-77
2022/10/17 06:41:08;;;;;;;8.25;5.00;;;;;;;12.88;nan;100142.84;4960217;28;20193;-76
2022/10/17 06:43:38;;;;;;;5.47;4.70;;;;;;;12.95;nan;100136.22;4976745;28;20226;-76
2022/10/17 06:46:39;;;;;;;7.47;6.03;;;;;;;13.01;nan;100154.28;4937109;28;20345;-76
2022/10/17 06:49:08;;;;;;;9.10;5.82;;;;;;;13.06;nan;100142.50;4950553;28;20202;-76
2022/10/17 06:51:41;;;;;;;8.98;5.70;;;;;;;13.14;nan;100139.34;4962321;28;21041;-76
2022/10/17 06:54:08;;;;;;;10.50;5.15;;;;;;;13.22;nan;100150.25;4964143;28;20219;-77
2022/10/17 06:56:45;;;;;;;8.35;5.13;;;;;;;13.35;nan;100150.31;4960780;28;20507;-77
2022/10/17 06:59:17;;;;;;;6.43;5.38;;;;;;;13.45;nan;100148.75;4962394;28;20200;-76
2022/10/17 07:01:50;;;;;;;9.15;6.78;;;;;;;13.56;nan;100153.31;4957935;28;20213;-76
2022/10/17 07:04:15;;;;;;;19.97;5.60;;;;;;;13.67;nan;100153.44;4973413;28;21141;-76
2022/10/17 07:06:41;;;;;;;7.57;4.50;;;;;;;13.76;nan;100144.03;4960269;28;20190;-76
2022/10/17 07:09:14;;;;;;;9.93;5.65;;;;;;;13.82;nan;100151.53;4958038;28;20180;-76
2022/10/17 07:11:39;;;;;;;7.97;5.67;;;;;;;13.90;nan;100159.78;4959210;28;20727;-76
2022/10/17 07:14:05;;;;;;;9.43;5.27;;;;;;;13.99;nan;100154.81;4960082;28;20192;-76
2022/10/17 07:16:30;;;;;;;6.13;4.90;;;;;;;14.04;nan;100150.94;4961667;28;20240;-76
2022/10/17 07:19:05;;;;;;;10.73;6.25;;;;;;;14.13;nan;100170.56;4957495;28;20190;-77
2022/10/17 07:21:34;;;;;;;7.57;5.13;;;;;;;14.23;nan;100155.78;4960081;28;20203;-76
2022/10/17 07:24:02;;;;;;;6.70;5.30;;;;;;;14.34;nan;100161.13;4960030;28;20249;-76
2022/10/17 07:26:28;;;;;;;9.35;5.15;;;;;;;14.48;nan;100164.63;4976356;28;20268;-76
2022/10/17 07:28:54;;;;;;;6.33;5.73;;;;;;;14.62;nan;100161.84;4959123;28;20194;-77
2022/10/17 07:31:27;;;;;;;5.82;5.20;;;;;;;14.77;nan;100168.69;4952554;28;20206;-76
2022/10/17 07:33:52;;;;;;;7.63;5.47;;;;;;;14.93;nan;100168.44;4962852;28;20196;-76
2022/10/17 07:36:19;;;;;;;7.40;5.30;;;;;;;15.09;nan;100170.78;4958160;28;20572;-76
2022/10/17 07:38:45;;;;;;;10.50;6.80;;;;;;;15.24;nan;100172.28;4956913;28;20194;-76
2022/10/17 07:41:11;;;;;;;10.13;6.23;;;;;;;15.39;nan;100166.81;4960115;28;20655;-76
2022/10/17 07:43:37;;;;;;;6.60;4.50;;;;;;;15.53;nan;100174.59;4959377;28;20290;-76
2022/10/17 07:46:04;;;;;;;7.47;4.10;;;;;;;15.68;nan;100175.22;4957857;28;20240;-76
2022/10/17 07:48:31;;;;;;;6.03;5.07;;;;;;;15.82;nan;100167.06;4959982;28;20229;-76
2022/10/17 07:51:01;;;;;;;9.60;5.53;;;;;;;15.95;nan;100180.25;4972424;28;20215;-76
2022/10/17 07:53:26;;;;;;;5.65;5.05;;;;;;;16.07;nan;100168.69;4960268;28;20228;-77
2022/10/17 07:55:51;;;;;;;9.50;6.00;;;;;;;16.19;nan;100174.00;4959517;28;20216;-76
2022/10/17 07:58:17;;;;;;;10.47;5.47;;;;;;;16.33;nan;100177.25;4958652;28;20200;-76
2022/10/17 08:00:43;;;;;;;7.17;5.47;;;;;;;16.46;nan;100177.13;4960228;28;20276;-76
2022/10/17 08:03:09;;;;;;;9.50;5.67;;;;;;;16.56;nan;100182.56;4961053;28;20650;-76
2022/10/17 08:05:35;;;;;;;7.32;5.20;;;;;;;16.64;nan;100179.31;4959599;28;20182;-77
2022/10/17 08:08:00;;;;;;;5.07;4.63;;;;;;;16.75;nan;100184.59;4958705;28;20590;-76
2022/10/17 08:10:28;;;;;;;7.20;5.80;;;;;;;17.02;nan;100187.69;4960122;28;20655;-76
2022/10/17 08:12:57;;;;;;;8.18;4.80;;;;;;;17.78;nan;100184.97;4957877;28;20209;-76
2022/10/17 08:15:24;;;;;;;6.45;4.07;;;;;;;18.85;nan;100185.50;4959006;28;20204;-76
2022/10/17 08:17:50;;;;;;;5.03;4.40;;;;;;;19.83;nan;100183.72;4957449;28;20354;-76
2022/10/17 08:20:16;;;;;;;5.97;4.60;;;;;;;20.53;nan;100184.22;4959560;28;20274;-76
2022/10/17 08:22:41;;;;;;;6.20;4.50;;;;;;;21.16;nan;100184.28;4963218;28;20659;-76
2022/10/17 08:25:07;;;;;;;5.37;3.47;;;;;;;21.64;nan;100179.56;4958703;28;20184;-77
2022/10/17 08:27:33;;;;;;;7.73;4.60;;;;;;;22.22;nan;100178.97;4961641;28;20191;-77
2022/10/17 08:29:59;;;;;;;5.23;3.30;;;;;;;22.85;nan;100185.75;4961444;28;20527;-77
2022/10/17 08:32:26;;;;;;;4.27;3.77;;;;;;;23.30;nan;100189.06;4963283;28;20452;-75
2022/10/17 08:34:54;;;;;;;4.50;3.60;;;;;;;23.88;nan;100180.03;4962300;28;20560;-74
2022/10/17 08:37:20;;;;;;;4.70;3.00;;;;;;;24.35;nan;100184.63;4963795;28;20468;-75
2022/10/17 08:39:46;;;;;;;10.43;3.57;;;;;;;24.65;nan;100185.69;4960238;28;21113;-75
2022/10/17 08:42:32;;;;;;;3.77;3.47;;;;;;;24.72;nan;100184.00;4963710;28;20435;-75
2022/10/17 08:45:20;;;;;;;7.37;3.60;;;;;;;24.83;nan;100193.53;4958347;28;20896;-75
2022/10/17 08:47:53;;;;;;;3.67;2.90;;;;;;;24.92;nan;100180.88;4953309;28;20424;-74
2022/10/17 08:50:36;;;;;;;5.47;3.00;;;;;;;24.93;nan;100183.38;4949746;28;20466;-75
2022/10/17 08:53:25;;;;;;;4.50;2.90;;;;;;;25.25;nan;100181.53;4952519;28;20504;-75
2022/10/17 08:55:52;;;;;;;3.10;2.73;;;;;;;25.56;nan;100176.06;4959686;28;20547;-74
2022/10/17 08:58:22;;;;;;;5.20;2.70;;;;;;;26.03;nan;100172.31;4958046;28;21271;-75
2022/10/17 09:01:00;;;;;;;3.30;2.90;;;;;;;26.53;nan;100169.91;4958502;28;20453;-75
2022/10/17 09:03:31;;;;;;;9.70;4.33;;;;;;;26.81;nan;100174.59;4957005;28;20857;-75
2022/10/17 09:06:28;;;;;;;4.00;3.40;;;;;;;26.86;nan;100172.16;4961657;28;20447;-75
2022/10/17 09:09:16;;;;;;;4.83;3.10;;;;;;;27.13;nan;100168.72;4960784;28;20449;-75
2022/10/17 09:12:10;;;;;;;4.30;3.10;;;;;;;27.13;nan;100174.13;4961418;28;21071;-76
2022/10/17 09:14:48;;;;;;;5.07;2.50;;;;;;;27.16;nan;100175.59;4959950;28;20602;-75
2022/10/17 09:17:41;;;;;;;6.67;3.37;;;;;;;26.92;nan;100174.97;4962713;28;20469;-75
2022/10/17 09:20:19;;;;;;;5.93;4.00;;;;;;;26.56;nan;100183.00;4962031;28;20438;-75
2022/10/17 09:22:55;;;;;;;8.83;5.00;;;;;;;26.30;nan;100177.22;4960146;28;20862;-75
2022/10/17 09:25:22;;;;;;;7.07;3.90;;;;;;;25.95;nan;100185.00;4961868;28;20455;-75
2022/10/17 09:27:55;;;;;;;4.63;3.57;;;;;;;25.83;nan;100187.28;4962085;28;20548;-75
2022/10/17 09:30:35;;;;;;;6.67;4.73;;;;;;;25.81;nan;100192.00;4959269;28;20968;-75
2022/10/17 09:33:10;;;;;;;6.60;4.37;;;;;;;25.62;nan;100193.34;4961631;28;20455;-76
2022/10/17 09:35:37;;;;;;;7.63;6.53;;;;;;;25.39;nan;100202.28;4964561;28;20470;-75
2022/10/17 09:38:03;;;;;;;5.93;5.43;;;;;;;25.12;nan;100197.41;4963288;28;20440;-75
2022/10/17 09:40:35;;;;;;;6.60;6.00;;;;;;;24.80;nan;100210.00;4962565;28;20418;-76
2022/10/17 09:43:03;;;;;;;7.00;6.40;;;;;;;24.39;nan;100207.44;4962791;28;20851;-76
2022/10/17 09:45:36;;;;;;;9.37;5.50;;;;;;;24.12;nan;100213.22;4963609;28;20417;-75
2022/10/17 09:48:10;;;;;;;5.40;4.40;;;;;;;23.64;nan;100211.19;4964557;28;20435;-75
2022/10/17 09:50:35;;;;;;;4.60;3.70;;;;;;;23.34;nan;100217.22;4959130;28;20454;-75
2022/10/17 09:53:11;;;;;;;6.33;3.10;;;;;;;23.24;nan;100219.22;4960923;28;20479;-75
2022/10/17 09:55:47;;;;;;;3.57;3.27;;;;;;;23.21;nan;100214.19;4963339;28;20206;-75
2022/10/17 09:58:13;;;;;;;4.77;3.63;;;;;;;23.24;nan;100217.34;4966276;28;20710;-76
2022/10/17 10:00:46;;;;;;;5.10;3.60;;;;;;;23.25;nan;100207.47;4971995;28;21412;-75
2022/10/17 10:03:11;;;;;;;4.83;3.80;;;;;;;23.22;nan;100215.84;4953820;28;20780;-75
2022/10/17 10:05:37;;;;;;;8.40;3.53;;;;;;;23.23;nan;100210.34;4959891;28;20826;-75
2022/10/17 10:08:24;;;;;;;3.60;2.90;;;;;;;23.25;nan;100212.84;4964570;28;20567;-75
2022/10/17 10:10:57;;;;;;;3.40;3.10;;;;;;;23.24;nan;100213.84;4956781;28;20565;-75
2022/10/17 10:13:25;;;;;;;6.87;4.20;;;;;;;23.27;nan;100216.19;4966759;28;20443;-75
2022/10/17 10:15:51;;;;;;;4.07;3.23;;;;;;;23.32;nan;100219.22;4965838;28;21006;-75
2022/10/17 10:18:29;;;;;;;4.10;3.03;;;;;;;23.40;nan;100225.44;4963836;28;20620;-76
2022/10/17 10:21:11;;;;;;;5.73;2.90;;;;;;;23.58;nan;100219.09;4962510;28;20187;-76
2022/10/17 10:23:40;;;;;;;3.03;2.50;;;;;;;23.62;nan;100223.94;4963563;28;20444;-75
2022/10/17 10:26:28;;;;;;;6.33;3.10;;;;;;;23.70;nan;100219.59;4968086;28;20804;-75
2022/10/17 10:29:03;;;;;;;3.20;2.37;;;;;;;23.79;nan;100230.19;4964317;28;20451;-75
2022/10/17 10:31:35;;;;;;;4.10;3.60;;;;;;;23.90;nan;100233.50;4966414;28;20488;-76
2022/10/17 10:34:13;;;;;;;7.07;3.00;;;;;;;24.00;nan;100239.56;4965135;28;20537;-75
2022/10/17 10:37:13;;;;;;;5.03;2.83;;;;;;;24.06;nan;100236.19;4966397;28;20903;-75
2022/10/17 10:39:48;;;;;;;4.60;2.50;;;;;;;24.16;nan;100233.31;4964295;28;20891;-74
2022/10/17 10:42:34;;;;;;;5.23;2.50;;;;;;;24.26;nan;100229.44;4961737;28;20493;-75
2022/10/17 10:45:42;;;;;;;3.70;3.00;;;;;;;24.39;nan;100234.28;4965366;28;20767;-75
2022/10/17 10:48:24;;;;;;;3.90;2.17;;;;;;;24.56;nan;100235.09;4964656;28;20437;-75
2022/10/17 10:50:59;;;;;;;3.20;2.50;;;;;;;24.68;nan;100227.50;4945034;28;20913;-75
2022/10/17 10:53:42;;;;;;;2.63;2.43;;;;;;;24.78;nan;100227.31;4950686;28;20467;-76
2022/10/17 10:56:30;;;;;;;2.70;2.20;;;;;;;24.83;nan;100228.44;4949576;28;20500;-75
2022/10/17 10:59:05;;;;;;;4.20;2.50;;;;;;;24.86;nan;100232.63;4948988;28;20433;-75
2022/10/17 11:01:37;;;;;;;2.57;2.07;;;;;;;24.88;nan;100233.31;4947843;28;20430;-75
2022/10/17 11:04:32;;;;;;;4.23;2.47;;;;;;;24.92;nan;100231.94;4947913;28;20427;-75
2022/10/17 11:07:06;;;;;;;3.27;2.10;;;;;;;24.95;nan;100234.25;4948886;28;20432;-75
2022/10/17 11:10:07;;;;;;;6.50;2.70;;;;;;;25.03;nan;100230.69;4944323;28;20979;-75
2022/10/17 11:12:40;;;;;;;5.07;2.43;;;;;;;25.05;nan;100232.19;4946675;28;20546;-75
2022/10/17 11:15:17;;;;;;;2.50;2.30;;;;;;;25.12;nan;100237.72;4949652;28;20402;-76
2022/10/17 11:18:03;;;;;;;3.03;2.07;;;;;;;25.14;nan;100244.59;4948973;28;20461;-75
2022/10/17 11:20:31;;;;;;;2.07;1.60;;;;;;;25.12;nan;100235.03;4946220;28;20983;-75
2022/10/17 11:23:20;;;;;;;4.03;2.20;;;;;;;25.10;nan;100235.19;4946041;28;20456;-75
2022/10/17 11:25:49;;;;;;;3.03;1.87;;;;;;;25.12;nan;100237.72;4947384;28;21085;-76
2022/10/17 11:28:18;;;;;;;2.00;1.90;;;;;;;25.12;nan;100245.78;4949269;28;20516;-76
2022/10/17 11:30:49;;;;;;;2.43;1.60;;;;;;;25.16;nan;100241.75;4946441;28;20968;-75
2022/10/17 11:33:24;;;;;;;2.40;1.60;;;;;;;25.25;nan;100240.69;4948246;28;20428;-75
2022/10/17 11:35:53;;;;;;;2.00;1.70;;;;;;;25.33;nan;100240.66;4950008;28;21336;-75
2022/10/17 11:38:41;;;;;;;3.07;1.70;;;;;;;25.42;nan;100237.91;4949246;28;20442;-75
2022/10/17 11:41:13;;;;;;;3.10;2.00;;;;;;;25.43;nan;100232.31;4951073;28;20498;-76
2022/10/17 11:43:52;;;;;;;1.60;1.50;;;;;;;25.47;nan;100232.81;4951444;28;20763;-76
2022/10/17 11:46:23;;;;;;;2.03;1.73;;;;;;;25.48;nan;100227.25;4948011;28;20826;-76
2022/10/17 11:49:01;;;;;;;3.23;1.87;;;;;;;25.49;nan;100231.63;4949659;28;20414;-76
2022/10/17 11:51:29;;;;;;;2.43;1.77;;;;;;;25.49;nan;100230.78;4948721;28;20431;-77
2022/10/17 11:54:03;;;;;;;1.83;1.57;;;;;;;25.53;nan;100227.56;4950167;28;20443;-76
2022/10/17 11:56:55;;;;;;;2.23;1.50;;;;;;;25.58;nan;100224.34;4950389;28;21262;-75
2022/10/17 11:59:59;;;;;;;1.70;1.40;;;;;;;25.61;nan;100218.59;4948974;28;20408;-76
2022/10/17 12:02:48;;;;;;;2.47;1.50;;;;;;;25.66;nan;100220.75;4945152;28;20451;-76
2022/10/17 12:05:25;;;;;;;3.23;1.90;;;;;;;25.71;nan;100216.50;4950888;28;20431;-76